Logo AVAMET
Benvolgut visitant, si us plau, ingressa Recuperar contrasenya

Callosa d'en Sarrià Margeve

Dades diàries. Acumulats / Últims 30 dies disponibles

Data Temperatura (°C) Humitat rel. (%) Pressió rel. (hPa) Vent (km/h) Precipitació
Mínima Mitjana Màxima Amplitud
tèrmica
Mínima Mitjana Màxima Mínima Mitjana Màxima Predom. Mitjana Ràfega
màxima
Total
(mm)
Índex-n
Mínima Mitjana Màxima Mínima Mitjana Màxima n
0 a 1
P0 max
mm 5'
Dades mensuals acumulades fins l'últim dia disponible
12/2019 9,0 10,6 13,2 13,2 12,8 16,2 20,6 11,6 18 68 91 1.000 1.014 1.024   6,3 41,6 150,4
Dades anuals acumulades fins l'últim dia disponible
2019 3,1 14,7 27,2 18,3 10,9 22,4 38,2 35,1 13 55 96 991 1.014 1.032   6,7 57,1 678,4
Últims 30 dies disponibles
09-12-2019 13,2     16,7     20,6 7,4 18 36 56 1.019 1.021 1.024 OSO 4,7 21,7 0,0
08-12-2019 9,2     13,2     16,2 7,0 47 66 88 1.019 1.020 1.022 SSO 4,0 16,4 0,0
07-12-2019 10,0     12,9     17,6 7,6 47 69 83 1.019 1.021 1.022 SO 4,6 14,4 0,0
06-12-2019 11,7     13,7     16,0 4,3 57 67 76 1.019 1.020 1.021 OSO 8,2 18,5 0,0
05-12-2019 10,2     12,1     15,0 4,8 65 82 90 1.007 1.010 1.014 SSO 3,2 11,0 6,2 0,32 0,60
04-12-2019 10,2     11,6     14,6 4,4 62 77 91 1.000 1.003 1.007 OSO 7,4 40,4 68,4 0,68 5,90
03-12-2019 9,0     10,7     12,8 3,8 65 79 87 1.006 1.011 1.014 OSO 14,4 41,6 38,2 0,51 0,70
02-12-2019 11,1     13,4     15,7 4,6 56 73 90 1.008 1.010 1.014 OSO 5,9 33,9 37,6 0,50 1,50
01-12-2019 11,1     14,1     17,1 6,0 52 69 85 1.008 1.010 1.012 SO 4,4 17,9 0,0
30-11-2019 12,3     16,0     20,0 7,7 50 65 85 1.012 1.016 1.019 SSO 5,1 18,3 0,0
29-11-2019 14,3     17,8     22,4 8,1 37 49 69 1.013 1.016 1.019 SSO 3,4 15,2 0,0
28-11-2019 13,0     16,6     21,5 8,5 34 47 61 1.011 1.013 1.015 SSO 5,6 24,8 0,0
27-11-2019 14,9     18,0     21,2 6,3 31 46 75 1.006 1.009 1.012 SO 5,6 36,2 0,0
26-11-2019 13,2     16,6     20,5 7,3 39 64 86 1.008 1.009 1.012 S 5,3 20,6 0,0
25-11-2019 12,7     15,7     19,3 6,6 42 49 56 1.010 1.011 1.012 SO 5,4 26,5 0,0
24-11-2019 12,1     13,9     15,5 3,4 30 36 43 1.003 1.008 1.012 OSO 12,8 57,1
23-11-2019 12,5     13,9     16,0 3,5 34 48 92 991 996 1.004 OSO 12,5 37,8 0,2
22-11-2019 10,9     13,0     16,4 5,5 62 75 92 993 1.000 1.006 S 8,1 39,8 7,0 0,39 1,00
21-11-2019 9,4     12,2     16,3 6,9 48 64 76 1.006 1.007 1.008 SSO 3,6 17,3 0,0
20-11-2019 8,4     11,5     15,7 7,3 35 52 79 1.007 1.009 1.013 SSO 6,9 25,5 0,6
19-11-2019 6,9     10,2     14,4 7,5 38 47 60 1.012 1.013 1.015 SO 5,2 18,6 0,0
18-11-2019 8,9     11,7     14,3 5,4 41 54 78 1.004 1.008 1.014 O 7,6 32,5 1,0
17-11-2019 8,8     12,8     16,8 8,0 29 39 65 1.007 1.010 1.012 SSO 5,9 20,3 0,0
16-11-2019 8,3     11,0     14,3 6,0 31 42 59 1.003 1.008 1.013 OSO 6,4 25,8 0,0
15-11-2019 8,2     11,5     13,9 5,7 30 40 52 998 1.001 1.004 SO 5,4 38,6 0,0
14-11-2019 10,5     13,4     16,1 5,6 37 57 83 998 1.001 1.009 S 7,5 36,5 0,0
13-11-2019 12,5     14,7     19,6 7,1 32 58 80 1.003 1.006 1.010 SO 6,5 34,7 4,2 0,42 0,40
12-11-2019 10,8     13,6     18,0 7,2 23 36 50 1.008 1.009 1.010 SO 6,2 23,0 0,0
11-11-2019 8,7     12,9     16,7 8,0 25 35 47 1.009 1.010 1.012 O 6,6 26,3 0,0
10-11-2019 10,9     13,6     16,3 5,4 29 40 63 1.008 1.009 1.011 O 13,1 46,7 0,6
Últims 13 mesos disponibles
11/2019 6,9 12,2 19,7 15,2 13,9 18,6 26,3 19,4 31 47 75 996 1.008 1.016 SSO 7,4 57,1 13,8
10/2019 10,7 16,5 20,3 19,8 16,6 23,8 29,9 19,2 35 62 80 1.006 1.014 1.020 SSO 5,5 39,3 49,6
09/2019 12,5 19,6 22,2 23,0 21,6 26,8 31,6 19,1 53 70 85 1.008 1.015 1.022 SSO 6,5 43,0 197,4
08/2019 19,9 22,8 27,2 26,5 28,0 30,6 35,3 15,4 35 61 77 1.009 1.014 1.017 S 7,1 36,4 22,8
07/2019 20,2 23,4 25,9 27,2 26,6 31,7 36,5 16,3 24 51 76 1.004 1.012 1.019 S 8,1 35,9 0,2
06/2019 13,8 18,8 24,4 23,0 22,1 27,5 38,2 24,4 25 51 70 1.007 1.013 1.020 S 8,0 35,1 1,4
05/2019 9,9 14,0 19,6 17,9 18,1 22,2 27,0 17,1 43 58 79 1.003 1.013 1.023 S 7,5 40,0 21,2
04/2019 7,3 11,3 14,4 14,5 13,4 18,4 26,9 19,6 28 59 84 997 1.010 1.023 S 7,5 53,7 160,4
03/2019 6,3 9,8 14,4 13,7 11,6 18,2 26,8 20,5 27 47 83 1.010 1.020 1.028 SE 5,9 46,4 49,2
02/2019 3,1 8,0 11,6 11,7 11,8 16,5 20,7 17,6 24 48 65 994 1.022 1.030 S 5,8 35,4 1,0
01/2019 3,9 7,3 11,1 10,9 10,9 15,1 18,9 15,0 28 48 72 1.001 1.016 1.028 SSE 5,0 41,7 11,0
12/2018 6,6 9,4 13,5 13,0 12,3 17,4 22,0 15,4 32 56 78 1.006 1.023 1.029 SO 2,7 35,8 35,2
11/2018 8,0 11,1 15,4 14,1 12,7 17,9 22,4 14,4 37 60 85 998 1.013 1.020 S 4,5 48,9 81,2
Tots els anys disponibles
Temperatura (°C)
Humitat relativa (%)
Velocitat del vent i ràfega màxima (km/h)
Direcció del vent (°)
Pressió (hPa)
Precipitació (mm)
Nota sobre les dades: s'avisa a l'usuari de la provisionalitat i no oficialitat d'aquestes dades
Logo AVAMET blanc
Web allotjada a Sollutia
Llicència de Creative CommonsLa web d'AVAMET i els seus continguts estan subjectes a una llicència de
Reconeixement - No Comercial - Compartir igual
Últimes estacions: Aielo de Malferit - Centre (Soci), Faura (Inforatge), Benifairó de les Valls (Inforatge), Xàbia - Les Valls (Soci), Xàbia - Alt de la Granadella (Soci), Villena - Sierra de Salinas (Soci), Sueca - Centre (Inforatge) - - -